Time;durP1;ratioP1;P1;durP2;ratioP2;P2;SDS_P1;SDS_P2;PMS_P1;PMS_P2;Temp;Humidity;BMP_temperature;BMP_pressure;BME280_temperature;BME280_humidity;BME280_pressure;Samples;Min_cycle;Max_cycle;Signal;HPM_P1;HPM_P2
2022/05/06 00:01:53;;;;;;;7.83;4.30;;;;;;;14.74;58.76;100195.72;5070865;28;20226;-55
2022/05/06 00:04:20;;;;;;;5.93;4.17;;;;;;;14.77;58.50;100198.34;5070559;28;20282;-55
2022/05/06 00:06:48;;;;;;;6.07;4.03;;;;;;;14.75;59.09;100202.59;5070894;28;20204;-55
2022/05/06 00:09:15;;;;;;;4.53;3.67;;;;;;;14.78;58.81;100206.94;5070287;28;20192;-55
2022/05/06 00:11:42;;;;;;;5.07;3.63;;;;;;;14.78;58.96;100214.69;5070525;28;20201;-56
2022/05/06 00:14:08;;;;;;;6.80;3.93;;;;;;;14.84;58.80;100207.00;5070505;28;20202;-55
2022/05/06 00:16:35;;;;;;;6.27;3.97;;;;;;;14.82;58.83;100207.84;5070699;28;20260;-56
2022/05/06 00:19:02;;;;;;;4.70;3.73;;;;;;;14.84;58.77;100203.56;5064523;28;20255;-56
2022/05/06 00:21:29;;;;;;;5.30;4.23;;;;;;;14.87;58.42;100208.75;5050560;28;20691;-56
2022/05/06 00:23:57;;;;;;;5.70;4.38;;;;;;;14.94;58.34;100220.94;5049370;28;21328;-55
2022/05/06 00:26:24;;;;;;;7.03;3.90;;;;;;;14.96;58.31;100216.63;5050272;28;20203;-56
2022/05/06 00:28:51;;;;;;;7.77;4.00;;;;;;;14.95;58.25;100220.94;5050435;28;20199;-56
2022/05/06 00:31:17;;;;;;;5.60;4.10;;;;;;;14.96;58.40;100219.22;5050051;28;20191;-56
2022/05/06 00:33:44;;;;;;;4.60;4.10;;;;;;;14.90;58.59;100221.72;5052138;28;20200;-56
2022/05/06 00:36:11;;;;;;;6.90;4.27;;;;;;;14.83;58.29;100219.94;5070430;28;20191;-56
2022/05/06 00:38:38;;;;;;;5.07;4.07;;;;;;;14.81;58.12;100216.44;5070214;28;20656;-56
2022/05/06 00:41:06;;;;;;;9.97;4.30;;;;;;;14.78;58.48;100225.94;5070129;28;20220;-55
2022/05/06 00:43:33;;;;;;;8.63;4.20;;;;;;;14.80;58.91;100217.31;5069490;28;20449;-55
2022/05/06 00:46:00;;;;;;;6.37;3.93;;;;;;;14.79;58.49;100211.28;5070379;28;20209;-56
2022/05/06 00:48:28;;;;;;;8.17;5.17;;;;;;;14.80;58.13;100219.91;5070291;28;20193;-56
2022/05/06 00:50:57;;;;;;;4.87;4.37;;;;;;;14.70;58.81;100219.81;5069905;28;20752;-56
2022/05/06 00:53:24;;;;;;;4.87;4.37;;;;;;;14.69;58.40;100223.25;5069858;28;20198;-56
2022/05/06 00:55:52;;;;;;;8.60;4.43;;;;;;;14.64;58.75;100224.06;5069845;28;20193;-56
2022/05/06 00:58:21;;;;;;;7.20;3.90;;;;;;;14.61;58.91;100222.28;5069894;28;20194;-56
2022/05/06 01:00:48;;;;;;;5.17;3.87;;;;;;;14.55;58.80;100214.47;5069753;28;20217;-56
2022/05/06 01:03:15;;;;;;;5.70;4.27;;;;;;;14.57;59.41;100223.09;5069839;28;20226;-56
2022/05/06 01:05:42;;;;;;;5.77;4.20;;;;;;;14.55;59.21;100223.94;5069732;28;20563;-56
2022/05/06 01:08:10;;;;;;;6.63;4.33;;;;;;;14.46;59.70;100232.44;5069866;28;20194;-56
2022/05/06 01:10:37;;;;;;;5.30;3.97;;;;;;;14.44;59.89;100231.56;5056754;28;20582;-56
2022/05/06 01:13:04;;;;;;;5.27;4.23;;;;;;;14.42;59.90;100233.25;5049778;28;20619;-56
2022/05/06 01:15:32;;;;;;;4.73;4.03;;;;;;;14.42;60.30;100235.81;5049602;28;20204;-56
2022/05/06 01:17:59;;;;;;;4.93;4.10;;;;;;;14.31;60.17;100231.38;5049929;28;20188;-56
2022/05/06 01:20:27;;;;;;;8.60;4.60;;;;;;;14.24;60.73;100235.56;5057829;28;20206;-56
2022/05/06 01:22:58;;;;;;;4.40;4.00;;;;;;;14.21;60.63;100232.94;5069485;28;20672;-56
2022/05/06 01:25:25;;;;;;;6.53;4.90;;;;;;;14.23;60.95;100226.06;5069612;28;20201;-56
2022/05/06 01:27:56;;;;;;;6.00;4.43;;;;;;;14.25;60.91;100228.69;5069995;28;20199;-56
2022/05/06 01:30:32;;;;;;;6.90;4.50;;;;;;;14.18;60.93;100230.31;5067917;28;20198;-56
2022/05/06 01:33:00;;;;;;;5.97;4.60;;;;;;;14.18;61.10;100230.31;5049650;28;20192;-56
2022/05/06 01:35:29;;;;;;;6.37;4.20;;;;;;;14.15;60.90;100232.84;5049543;28;20200;-56
2022/05/06 01:38:01;;;;;;;4.70;4.07;;;;;;;13.91;60.99;100188.59;5049448;28;20313;-56
2022/05/06 01:40:29;;;;;;;7.25;4.72;;;;;;;14.12;61.42;100232.81;5049382;28;20485;-56
2022/05/06 01:42:59;;;;;;;6.00;4.53;;;;;;;14.08;61.59;100225.88;5049504;28;20219;-56
2022/05/06 01:45:30;;;;;;;6.30;3.93;;;;;;;14.08;61.55;100231.03;5049729;28;20196;-56
2022/05/06 01:47:59;;;;;;;5.83;4.50;;;;;;;14.05;61.87;100226.72;5053101;28;20621;-56
2022/05/06 01:50:27;;;;;;;7.03;4.63;;;;;;;14.06;61.68;100227.59;5053019;28;20253;-56
2022/05/06 01:52:56;;;;;;;6.23;4.60;;;;;;;14.06;61.53;100219.81;5053201;28;20193;-56
2022/05/06 01:55:24;;;;;;;8.17;4.80;;;;;;;14.05;61.24;100223.25;5063805;28;20207;-56
2022/05/06 01:57:51;;;;;;;9.47;5.70;;;;;;;13.98;60.83;100222.28;5072974;28;20199;-56
2022/05/06 02:00:19;;;;;;;10.00;7.03;;;;;;;13.90;61.59;100207.53;5072484;28;20442;-56
2022/05/06 02:02:45;;;;;;;6.87;5.53;;;;;;;13.92;60.88;100204.13;5072687;28;20498;-56
2022/05/06 02:05:17;;;;;;;6.33;5.43;;;;;;;14.00;61.04;100212.88;5073046;28;20199;-56
2022/05/06 02:07:44;;;;;;;5.83;5.23;;;;;;;14.02;61.10;100212.88;5072850;28;20225;-56
2022/05/06 02:10:12;;;;;;;5.80;5.20;;;;;;;13.98;61.70;100217.13;5068176;28;20209;-56
2022/05/06 02:12:40;;;;;;;8.97;6.00;;;;;;;13.91;61.81;100212.72;5052434;28;20189;-57
2022/05/06 02:15:10;;;;;;;9.17;5.40;;;;;;;13.89;62.35;100218.72;5052836;28;20218;-56
2022/05/06 02:17:39;;;;;;;5.83;5.23;;;;;;;13.77;62.75;100216.81;5052805;28;20224;-56
2022/05/06 02:20:07;;;;;;;9.47;5.67;;;;;;;13.71;62.89;100224.47;5052662;28;20192;-56
2022/05/06 02:22:34;;;;;;;6.97;5.77;;;;;;;13.61;62.86;100207.09;5052735;28;20225;-56
2022/05/06 02:25:01;;;;;;;8.73;5.53;;;;;;;13.78;62.88;100218.56;5065580;28;20199;-56
2022/05/06 02:27:28;;;;;;;15.07;6.23;;;;;;;13.81;62.81;100222.91;5072762;28;20300;-56
2022/05/06 02:35:25;;;;;;;10.00;6.10;;;;;;;13.57;63.22;100182.94;5072063;28;20292;-56
2022/05/06 02:37:52;;;;;;;6.83;4.83;;;;;;;13.72;63.48;100222.75;5071842;28;20225;-56
2022/05/06 02:40:19;;;;;;;11.80;5.57;;;;;;;13.72;63.61;100231.38;5072161;28;20195;-56
2022/05/06 02:42:46;;;;;;;5.67;4.93;;;;;;;13.74;63.89;100231.38;5071985;28;20223;-56
2022/05/06 02:45:14;;;;;;;5.70;5.20;;;;;;;13.75;63.75;100220.22;5071941;28;20211;-56
2022/05/06 02:47:41;;;;;;;9.60;5.77;;;;;;;13.71;63.71;100231.34;5072113;28;20201;-56
2022/05/06 02:50:09;;;;;;;11.57;5.70;;;;;;;13.67;63.88;100233.03;5071693;28;20257;-56
2022/05/06 02:52:36;;;;;;;5.90;5.30;;;;;;;13.70;63.81;100238.25;5071762;28;20550;-56
2022/05/06 02:55:02;;;;;;;6.47;4.93;;;;;;;13.72;64.07;100235.66;5072030;28;20250;-56
2022/05/06 02:57:29;;;;;;;5.20;4.70;;;;;;;13.70;63.86;100235.66;5071770;28;20192;-56
2022/05/06 02:59:56;;;;;;;6.00;5.37;;;;;;;13.71;63.66;100239.09;5071777;28;20197;-56
2022/05/06 03:02:24;;;;;;;9.63;5.83;;;;;;;13.67;64.11;100234.75;5071629;28;20306;-56
2022/05/06 03:04:51;;;;;;;7.87;5.47;;;;;;;13.72;64.12;100240.84;5068014;28;20662;-56
2022/05/06 03:07:18;;;;;;;6.07;5.43;;;;;;;13.71;64.52;100244.25;5051743;28;20196;-56
2022/05/06 03:09:45;;;;;;;6.67;5.30;;;;;;;13.71;64.66;100245.13;5051714;28;20214;-56
2022/05/06 03:12:12;;;;;;;8.20;6.30;;;;;;;13.69;64.47;100248.53;5051619;28;20189;-56
2022/05/06 03:14:38;;;;;;;8.53;5.50;;;;;;;13.73;64.33;100250.34;5051325;28;20721;-56
2022/05/06 03:17:05;;;;;;;9.37;5.87;;;;;;;13.77;64.16;100241.78;5051447;28;20658;-56
2022/05/06 03:19:34;;;;;;;8.23;5.40;;;;;;;13.76;64.06;100248.63;5051244;28;20197;-56
2022/05/06 03:22:01;;;;;;;8.03;5.97;;;;;;;13.82;64.10;100255.63;5051209;28;20256;-56
2022/05/06 03:24:28;;;;;;;7.13;5.47;;;;;;;13.81;64.13;100256.47;5051310;28;20567;-56
2022/05/06 03:26:55;;;;;;;10.13;5.87;;;;;;;13.85;64.11;100250.50;5051242;28;20689;-56
2022/05/06 03:29:22;;;;;;;8.37;5.40;;;;;;;13.90;63.64;100256.63;5051096;28;20193;-56
2022/05/06 03:31:49;;;;;;;16.30;10.07;;;;;;;13.93;63.44;100256.66;5054144;28;20199;-56
2022/05/06 03:34:17;;;;;;;19.93;11.80;;;;;;;13.94;63.67;100254.09;5069570;28;20549;-56
2022/05/06 03:36:45;;;;;;;10.33;7.20;;;;;;;13.97;63.46;100250.69;5071330;28;20191;-56
2022/05/06 03:39:13;;;;;;;13.67;6.13;;;;;;;13.95;63.38;100239.47;5070780;28;20242;-56
2022/05/06 03:41:40;;;;;;;9.87;6.00;;;;;;;14.06;63.83;100256.00;5071033;28;20186;-56
2022/05/06 03:44:07;;;;;;;10.33;6.73;;;;;;;14.11;63.69;100259.53;5069380;28;20222;-56
2022/05/06 03:46:34;;;;;;;9.33;6.40;;;;;;;14.21;63.08;100269.13;5071125;28;20311;-56
2022/05/06 03:49:01;;;;;;;8.10;6.30;;;;;;;14.26;62.91;100270.06;5071194;28;20262;-56
2022/05/06 03:51:28;;;;;;;9.93;6.57;;;;;;;14.34;62.39;100260.72;5071115;28;20246;-56
2022/05/06 03:53:57;;;;;;;8.57;7.20;;;;;;;14.42;62.00;100272.03;5070861;28;20207;-56
2022/05/06 03:56:25;;;;;;;8.57;6.90;;;;;;;14.44;62.31;100280.69;5068135;28;20190;-56
2022/05/06 03:58:53;;;;;;;10.77;7.50;;;;;;;14.52;62.87;100275.63;5070741;28;20195;-56
2022/05/06 04:01:20;;;;;;;10.50;7.67;;;;;;;14.54;63.18;100269.63;5070448;28;20195;-56
2022/05/06 04:03:47;;;;;;;9.17;6.87;;;;;;;14.58;63.51;100274.00;5070598;28;20212;-56
2022/05/06 04:06:14;;;;;;;11.70;7.50;;;;;;;14.57;64.25;100273.94;5070377;28;20639;-56
2022/05/06 04:08:42;;;;;;;14.03;7.47;;;;;;;14.62;64.37;100275.75;5069803;28;20690;-56
2022/05/06 04:11:11;;;;;;;10.83;7.77;;;;;;;14.69;64.23;100277.56;5066613;28;20192;-57
2022/05/06 04:13:38;;;;;;;10.07;7.27;;;;;;;14.70;64.35;100271.53;5055856;28;20212;-64
2022/05/06 04:16:06;;;;;;;12.27;8.00;;;;;;;14.71;63.87;100272.41;5069211;28;20211;-56
2022/05/06 04:18:33;;;;;;;10.53;7.53;;;;;;;14.73;63.61;100269.00;5070155;28;20204;-56
2022/05/06 04:23:45;;;;;;;9.80;6.93;;;;;;;14.73;63.18;100274.16;5070283;28;20202;-57
2022/05/06 04:26:13;;;;;;;9.10;7.37;;;;;;;14.75;63.47;100284.50;5070067;28;20195;-57
2022/05/06 04:28:41;;;;;;;10.30;7.33;;;;;;;14.82;62.98;100286.34;5070309;28;20635;-57
2022/05/06 04:31:08;;;;;;;11.40;7.50;;;;;;;14.84;63.14;100281.16;5069707;28;20433;-56
2022/05/06 04:33:38;;;;;;;10.17;7.20;;;;;;;14.89;62.57;100282.13;5070204;28;20201;-56
2022/05/06 04:36:06;;;;;;;8.90;6.30;;;;;;;14.79;62.34;100281.13;5069885;28;20199;-57
2022/05/06 04:38:32;;;;;;;9.00;6.60;;;;;;;14.78;62.44;100275.06;5061202;28;20223;-56
2022/05/06 04:41:01;;;;;;;9.33;7.00;;;;;;;14.80;61.94;100277.69;5056352;28;20215;-55
2022/05/06 04:43:30;;;;;;;8.70;6.90;;;;;;;14.81;62.29;100275.94;5070095;28;20213;-55
2022/05/06 04:45:58;;;;;;;11.67;7.40;;;;;;;14.78;62.69;100282.84;5070070;28;20219;-56
2022/05/06 04:48:26;;;;;;;11.10;7.60;;;;;;;14.86;62.86;100282.91;5069779;28;20193;-55
2022/05/06 04:50:53;;;;;;;11.37;6.73;;;;;;;14.90;62.73;100286.41;5054216;28;20203;-55
2022/05/06 04:53:20;;;;;;;11.03;7.77;;;;;;;14.86;63.17;100288.09;5057473;28;20187;-57
2022/05/06 04:55:49;;;;;;;7.47;6.77;;;;;;;14.91;63.42;100288.16;5069978;28;20678;-55
2022/05/06 04:58:16;;;;;;;9.00;6.83;;;;;;;15.00;63.06;100289.13;5070349;28;20181;-56
2022/05/06 05:00:45;;;;;;;13.17;7.97;;;;;;;14.99;63.13;100291.72;5069806;28;20197;-56
2022/05/06 05:03:12;;;;;;;11.63;8.25;;;;;;;15.11;63.10;100297.88;5069110;28;20507;-56
2022/05/06 05:05:39;;;;;;;13.47;8.30;;;;;;;15.12;62.53;100293.56;5069477;28;20193;-56
2022/05/06 05:08:08;;;;;;;9.03;8.03;;;;;;;15.25;62.75;100293.72;5069527;28;20196;-56
2022/05/06 05:10:34;;;;;;;9.37;8.03;;;;;;;15.20;62.69;100300.56;5050341;28;20989;-56
2022/05/06 05:13:01;;;;;;;8.97;7.50;;;;;;;15.17;62.72;100302.25;5069585;28;20268;-56
2022/05/06 05:15:28;;;;;;;8.90;8.00;;;;;;;15.21;62.59;100302.31;5069917;28;20191;-56
2022/05/06 05:17:56;;;;;;;12.93;9.10;;;;;;;15.33;62.71;100297.25;5069690;28;20446;-56
2022/05/06 05:20:23;;;;;;;13.00;8.23;;;;;;;15.43;62.30;100290.44;5069979;28;20197;-56
2022/05/06 05:22:50;;;;;;;12.30;9.50;;;;;;;15.61;61.74;100300.13;5073464;28;20453;-55
2022/05/06 05:25:17;;;;;;;12.80;8.77;;;;;;;15.71;60.73;100297.63;5067031;28;20628;-55
2022/05/06 05:27:44;;;;;;;10.07;8.77;;;;;;;15.81;60.80;100308.94;5068708;28;20597;-55
2022/05/06 05:30:12;;;;;;;12.83;9.17;;;;;;;15.81;60.93;100307.22;5070033;28;21036;-55
2022/05/06 05:32:39;;;;;;;17.10;9.10;;;;;;;15.81;60.21;100307.22;5073342;28;20200;-55
2022/05/06 05:35:09;;;;;;;10.77;9.33;;;;;;;15.83;59.24;100307.22;5072981;28;20287;-55
2022/05/06 05:37:36;;;;;;;14.93;9.70;;;;;;;15.90;59.50;100299.50;5072890;28;20229;-55
2022/05/06 05:40:03;;;;;;;13.27;9.30;;;;;;;15.99;59.29;100300.47;5071161;28;20193;-55
2022/05/06 05:42:30;;;;;;;9.97;8.37;;;;;;;16.02;59.16;100300.44;5070224;28;20192;-56
2022/05/06 05:50:29;;;;;;;13.93;8.17;;;;;;;16.28;58.15;100311.88;5067700;28;20198;-56
2022/05/06 05:52:55;;;;;;;10.27;8.60;;;;;;;16.38;57.64;100311.94;5062914;28;20198;-56
2022/05/06 05:55:23;;;;;;;10.47;7.93;;;;;;;16.41;57.71;100322.34;5067212;28;20192;-57
2022/05/06 05:57:50;;;;;;;9.23;7.80;;;;;;;16.53;57.21;100317.22;5072461;28;20295;-57
2022/05/06 06:00:17;;;;;;;10.57;8.13;;;;;;;16.41;56.44;100319.75;5072372;28;20898;-56
2022/05/06 06:02:44;;;;;;;8.40;6.93;;;;;;;16.46;55.85;100311.97;5072002;28;20195;-56
2022/05/06 06:05:11;;;;;;;9.20;7.60;;;;;;;16.47;55.98;100321.50;5065326;28;20208;-60
2022/05/06 06:07:40;;;;;;;8.63;7.73;;;;;;;16.53;55.56;100322.41;5072015;28;20202;-56
2022/05/06 06:10:08;;;;;;;8.60;7.63;;;;;;;16.46;55.20;100320.63;5066504;28;20194;-57
2022/05/06 06:12:35;;;;;;;8.83;7.53;;;;;;;16.59;55.56;100326.78;5063337;28;20204;-56
2022/05/06 06:15:02;;;;;;;8.00;7.20;;;;;;;16.66;55.03;100313.00;5068026;28;20194;-57
2022/05/06 06:17:30;;;;;;;9.30;7.27;;;;;;;16.64;55.00;100306.94;5068178;28;20203;-57
2022/05/06 06:19:57;;;;;;;9.27;7.47;;;;;;;16.84;54.42;100314.78;5064854;28;20188;-56
2022/05/06 06:22:24;;;;;;;14.80;7.73;;;;;;;16.99;54.35;100330.44;5070804;28;20199;-56
2022/05/06 06:24:52;;;;;;;12.13;8.40;;;;;;;17.13;54.15;100325.28;5072151;28;20275;-56
2022/05/06 06:27:19;;;;;;;11.20;8.77;;;;;;;17.01;54.35;100316.59;5072506;28;20191;-57
2022/05/06 06:29:47;;;;;;;9.00;7.70;;;;;;;17.15;54.38;100316.63;5072414;28;20202;-57
2022/05/06 06:32:14;;;;;;;10.80;8.27;;;;;;;17.35;54.07;100314.97;5071715;28;20283;-55
2022/05/06 06:34:41;;;;;;;14.47;8.33;;;;;;;17.44;53.89;100319.31;5072050;28;20195;-56
2022/05/06 06:37:08;;;;;;;9.80;8.80;;;;;;;17.43;54.44;100325.34;5070907;28;20440;-61
2022/05/06 06:39:36;;;;;;;10.00;8.90;;;;;;;17.57;54.95;100318.50;5070844;28;20932;-62
2022/05/06 06:42:05;;;;;;;10.50;8.57;;;;;;;17.81;54.42;100313.31;5072021;28;20280;-61
2022/05/06 06:44:32;;;;;;;13.33;8.23;;;;;;;17.86;52.93;100308.09;5071493;28;20711;-61
2022/05/06 06:46:59;;;;;;;13.97;9.50;;;;;;;17.90;54.75;100308.09;5065748;28;20191;-61
2022/05/06 06:49:26;;;;;;;12.90;8.90;;;;;;;17.92;54.15;100306.38;5070486;28;20188;-61
2022/05/06 06:51:53;;;;;;;10.83;9.10;;;;;;;17.93;54.15;100310.72;5068656;28;20245;-61
2022/05/06 06:54:19;;;;;;;10.70;9.43;;;;;;;17.98;54.23;100310.69;5071363;28;20546;-62
2022/05/06 06:56:46;;;;;;;9.40;8.47;;;;;;;18.05;53.28;100305.47;5071170;28;20248;-62
2022/05/06 06:59:14;;;;;;;14.68;8.50;;;;;;;18.09;53.16;100307.22;5068520;28;20406;-61
2022/05/06 07:01:41;;;;;;;11.77;8.93;;;;;;;18.09;53.16;100299.44;5071665;28;20543;-62
2022/05/06 07:04:08;;;;;;;13.07;8.03;;;;;;;18.20;52.44;100304.59;5067929;28;20230;-61
2022/05/06 07:12:03;;;;;;;10.00;7.90;;;;;;;17.59;53.39;100304.63;5051646;28;20207;-61
2022/05/06 07:14:33;;;;;;;9.37;8.40;;;;;;;17.84;53.33;100308.09;5050888;28;20206;-61
2022/05/06 07:17:00;;;;;;;15.00;9.00;;;;;;;18.07;52.83;100303.78;5051274;28;20199;-62
2022/05/06 07:19:27;;;;;;;11.67;9.20;;;;;;;17.99;52.68;100297.69;5051328;28;20676;-63
2022/05/06 07:21:53;;;;;;;8.70;7.90;;;;;;;18.14;51.57;100297.69;5051535;28;20196;-62
2022/05/06 07:24:21;;;;;;;8.50;7.67;;;;;;;18.20;51.63;100302.88;5051102;28;20219;-61
2022/05/06 07:26:48;;;;;;;8.70;7.47;;;;;;;18.38;51.07;100301.09;5050810;28;20286;-61
2022/05/06 07:29:16;;;;;;;10.70;8.57;;;;;;;18.56;50.68;100303.69;5054260;28;20191;-62
2022/05/06 07:31:44;;;;;;;15.03;8.60;;;;;;;18.72;50.34;100293.22;5070560;28;20234;-60
2022/05/06 07:34:11;;;;;;;10.77;8.27;;;;;;;18.90;49.75;100301.84;5069745;28;20206;-62
2022/05/06 07:36:41;;;;;;;10.37;8.83;;;;;;;18.91;49.51;100293.13;5070465;28;20198;-62
2022/05/06 07:39:10;;;;;;;12.00;9.23;;;;;;;18.57;49.87;100289.81;5069325;28;20294;-61
2022/05/06 07:41:37;;;;;;;9.43;8.40;;;;;;;18.63;50.33;100284.56;5069993;28;20672;-62
2022/05/06 07:44:04;;;;;;;9.30;8.27;;;;;;;18.95;49.92;100281.84;5067397;28;20312;-61
2022/05/06 07:46:31;;;;;;;10.97;8.67;;;;;;;19.00;49.88;100285.28;5068109;28;20637;-62
2022/05/06 07:48:59;;;;;;;11.23;9.27;;;;;;;19.23;49.31;100291.22;5050767;28;20662;-63
2022/05/06 07:51:27;;;;;;;12.93;8.80;;;;;;;19.30;49.06;100291.19;5050553;28;20214;-62
2022/05/06 07:53:56;;;;;;;10.03;8.63;;;;;;;19.39;48.81;100291.13;5061202;28;20194;-61
2022/05/06 07:56:23;;;;;;;12.55;9.77;;;;;;;19.32;48.64;100298.97;5062420;28;20868;-63
2022/05/06 07:58:50;;;;;;;12.03;10.30;;;;;;;19.37;48.42;100292.84;5067730;28;20196;-61
2022/05/06 08:01:17;;;;;;;9.53;8.63;;;;;;;19.32;48.39;100301.59;5067275;28;20198;-62
2022/05/06 08:06:30;;;;;;;9.00;8.10;;;;;;;19.40;48.54;100299.81;5069691;28;20195;-62
2022/05/06 08:08:57;;;;;;;11.47;9.43;;;;;;;19.51;47.69;100298.00;5067990;28;20269;-61
2022/05/06 08:11:24;;;;;;;11.43;9.97;;;;;;;19.54;48.62;100294.50;5069903;28;20270;-62
2022/05/06 08:13:52;;;;;;;12.70;8.77;;;;;;;19.72;47.45;100302.22;5070578;28;20195;-62
2022/05/06 08:16:19;;;;;;;11.90;9.43;;;;;;;19.74;46.35;100301.31;5069587;28;20430;-62
2022/05/06 08:18:46;;;;;;;11.80;8.33;;;;;;;19.62;46.80;100301.41;5069970;28;20195;-62
2022/05/06 08:21:13;;;;;;;9.77;8.77;;;;;;;19.49;47.25;100302.38;5070099;28;20187;-62
2022/05/06 08:23:41;;;;;;;13.70;8.87;;;;;;;19.61;47.17;100298.81;5069983;28;21167;-62
2022/05/06 08:26:08;;;;;;;10.77;8.47;;;;;;;19.79;46.76;100304.75;5070198;28;20188;-62
2022/05/06 08:28:35;;;;;;;10.23;7.83;;;;;;;19.47;47.57;100300.66;5070018;28;20642;-62
2022/05/06 08:31:02;;;;;;;15.53;8.13;;;;;;;19.79;46.84;100294.31;5068259;28;20264;-62
2022/05/06 08:33:29;;;;;;;12.90;8.63;;;;;;;20.00;46.11;100298.47;5064821;28;20286;-62
2022/05/06 08:35:56;;;;;;;8.90;8.00;;;;;;;20.12;46.08;100295.75;5069172;28;20253;-62
2022/05/06 08:38:23;;;;;;;8.87;8.07;;;;;;;20.27;45.97;100297.41;5069029;28;20215;-61
2022/05/06 08:40:51;;;;;;;9.10;8.20;;;;;;;20.17;45.42;100301.78;5068882;28;20199;-62
2022/05/06 08:43:18;;;;;;;12.17;8.63;;;;;;;20.02;46.45;100291.53;5062626;28;20196;-61
2022/05/06 08:51:17;;;;;;;13.57;8.07;;;;;;;20.54;45.54;100287.53;5069618;28;20214;-62
2022/05/06 08:53:44;;;;;;;17.77;9.40;;;;;;;20.11;46.43;100288.78;5069643;28;20182;-61
2022/05/06 08:56:12;;;;;;;12.57;8.30;;;;;;;20.18;46.71;100292.22;5073420;28;20191;-61
2022/05/06 08:58:41;;;;;;;12.30;8.33;;;;;;;20.30;46.55;100284.31;5073811;28;20673;-62
2022/05/06 09:01:09;;;;;;;16.80;8.43;;;;;;;20.36;47.01;100279.88;5073747;28;20684;-62
2022/05/06 09:03:38;;;;;;;9.67;8.77;;;;;;;20.07;47.30;100278.41;5068357;28;20191;-61
2022/05/06 09:06:05;;;;;;;11.40;9.52;;;;;;;20.48;46.61;100274.53;5067477;28;20445;-62
2022/05/06 09:08:37;;;;;;;16.93;11.53;;;;;;;20.87;45.51;100277.53;5072074;28;20244;-62
2022/05/06 09:11:05;;;;;;;9.33;8.40;;;;;;;20.93;45.36;100280.91;5070368;28;20267;-62
2022/05/06 09:13:33;;;;;;;14.43;9.50;;;;;;;21.17;45.06;100282.38;5073325;28;20283;-62
2022/05/06 09:19:20;;;;;;;10.40;8.03;;;;;;;21.44;44.29;100273.25;5073128;28;20234;-62
2022/05/06 09:22:02;;;;;;;10.70;8.23;;;;;;;21.63;44.04;100269.47;5070739;28;20206;-63
2022/05/06 09:24:30;;;;;;;12.83;9.23;;;;;;;21.76;43.93;100260.53;5070699;28;20754;-63
2022/05/06 09:27:02;;;;;;;13.27;9.63;;;;;;;21.25;44.90;100248.28;5067885;28;20649;-61
2022/05/06 09:29:33;;;;;;;11.53;8.93;;;;;;;21.32;46.07;100250.78;5067369;28;20198;-62
2022/05/06 09:32:17;;;;;;;10.97;9.30;;;;;;;21.16;45.35;100246.66;5070725;28;20634;-62
2022/05/06 09:34:46;;;;;;;9.87;8.93;;;;;;;21.34;45.83;100240.31;5071750;28;20191;-62
2022/05/06 09:37:13;;;;;;;11.50;9.80;;;;;;;21.43;45.27;100246.25;5067715;28;20249;-61
2022/05/06 09:39:39;;;;;;;13.23;9.97;;;;;;;21.33;45.70;100236.81;5067133;28;20219;-62
2022/05/06 09:42:07;;;;;;;11.07;9.33;;;;;;;21.55;45.86;100230.38;5071867;28;20194;-63
2022/05/06 09:44:36;;;;;;;16.00;10.50;;;;;;;21.88;45.51;100228.09;5072256;28;20195;-57
2022/05/06 09:47:11;;;;;;;13.97;10.10;;;;;;;21.96;45.75;100220.97;5078894;28;21737;-58
2022/05/06 09:49:41;;;;;;;12.30;10.67;;;;;;;22.16;45.23;100231.94;5073108;28;20199;-57
2022/05/06 09:52:12;;;;;;;15.47;10.47;;;;;;;22.14;44.93;100215.41;5070257;28;20215;-58
2022/05/06 09:54:42;;;;;;;13.37;10.13;;;;;;;22.18;44.96;100217.03;5070109;28;20187;-57
2022/05/06 09:57:11;;;;;;;12.73;10.53;;;;;;;21.97;46.45;100218.34;5072190;28;20184;-57
2022/05/06 09:59:39;;;;;;;14.50;11.93;;;;;;;22.12;46.13;100211.91;5072757;28;20184;-57
2022/05/06 10:02:08;;;;;;;13.00;11.10;;;;;;;22.40;45.45;100213.13;5075542;28;20243;-58
2022/05/06 10:04:35;;;;;;;12.03;10.20;;;;;;;22.53;44.25;100211.97;5072923;28;20215;-57
2022/05/06 10:07:03;;;;;;;17.97;10.13;;;;;;;22.69;44.53;100204.69;5070791;28;20190;-57
2022/05/06 10:09:35;;;;;;;14.43;9.80;;;;;;;22.75;44.47;100201.91;5069172;28;20195;-57
2022/05/06 10:12:07;;;;;;;12.77;9.80;;;;;;;22.47;43.43;100206.84;5072298;28;20244;-57
2022/05/06 10:14:35;;;;;;;13.73;9.30;;;;;;;22.59;43.52;100188.25;5072816;28;20196;-59
2022/05/06 10:17:04;;;;;;;9.63;8.63;;;;;;;22.90;42.52;100194.59;5072154;28;20222;-56
2022/05/06 10:19:46;;;;;;;10.67;8.50;;;;;;;23.02;41.73;100198.66;5072425;28;20200;-56
2022/05/06 10:22:13;;;;;;;10.55;8.35;;;;;;;22.90;41.35;100191.97;5072641;28;20434;-57
2022/05/06 10:24:42;;;;;;;9.03;7.23;;;;;;;23.15;40.64;100191.41;5072390;28;20586;-56
2022/05/06 10:32:25;;;;;;;8.77;6.97;;;;;;;23.05;39.23;100192.50;5073033;28;20198;-56
2022/05/06 10:33:16;;;;;;;7.43;6.83;;;;;;;22.97;39.30;100173.47;5051689;28;20206;-56
2022/05/06 10:35:44;;;;;;;10.03;7.83;;;;;;;23.15;38.87;100155.56;5069429;28;20314;-56
2022/05/06 10:38:23;;;;;;;9.70;7.03;;;;;;;23.44;38.56;100166.22;5071403;28;20238;-57
2022/05/06 10:40:54;;;;;;;8.43;7.60;;;;;;;23.51;39.08;100164.31;5071682;28;20291;-56
2022/05/06 10:43:53;;;;;;;8.23;7.25;;;;;;;24.02;37.92;100165.53;5071306;28;20437;-57
2022/05/06 10:46:39;;;;;;;8.97;7.27;;;;;;;24.23;37.20;100165.88;5065513;28;20657;-56
2022/05/06 10:49:51;;;;;;;7.37;6.67;;;;;;;24.40;36.18;100153.94;5071039;28;20340;-57
2022/05/06 10:52:41;;;;;;;7.57;6.67;;;;;;;24.41;34.74;100152.19;5055377;28;20238;-57
2022/05/06 10:55:12;;;;;;;14.17;5.77;;;;;;;24.38;35.25;100152.28;5063074;28;20195;-57
2022/05/06 10:57:53;;;;;;;7.30;6.23;;;;;;;24.32;34.79;100126.19;5071381;28;20188;-59
2022/05/06 11:00:21;;;;;;;7.87;6.70;;;;;;;24.58;34.14;100137.63;5062158;28;20204;-57
2022/05/06 11:02:48;;;;;;;5.00;4.60;;;;;;;24.35;32.54;100133.97;5051576;28;20196;-56
2022/05/06 11:05:16;;;;;;;6.27;4.70;;;;;;;24.62;32.37;100134.00;5056790;28;20273;-57
2022/05/06 11:07:46;;;;;;;5.50;4.73;;;;;;;24.95;33.07;100124.22;5065598;28;20191;-57
2022/05/06 11:10:16;;;;;;;5.63;5.10;;;;;;;25.34;33.15;100126.47;5070001;28;20191;-57
2022/05/06 11:12:44;;;;;;;7.50;5.33;;;;;;;25.46;31.14;100132.19;5069565;28;20203;-57
2022/05/06 11:15:14;;;;;;;6.23;4.63;;;;;;;24.89;30.53;100092.88;5070762;28;20180;-57
2022/05/06 11:17:42;;;;;;;4.80;4.40;;;;;;;24.81;30.91;100115.06;5066754;28;20199;-57
2022/05/06 11:20:17;;;;;;;6.83;4.23;;;;;;;24.74;31.82;100109.13;5066692;28;20273;-56
2022/05/06 11:22:57;;;;;;;5.17;4.63;;;;;;;24.76;32.08;100112.56;5064162;28;20543;-56
2022/05/06 11:25:25;;;;;;;7.10;6.40;;;;;;;24.65;32.52;100106.78;5068561;28;20590;-58
2022/05/06 11:27:54;;;;;;;7.93;4.07;;;;;;;24.81;30.70;100100.16;5070449;28;20196;-57
2022/05/06 11:30:23;;;;;;;6.57;4.07;;;;;;;24.95;31.04;100105.81;5070254;28;20187;-57
2022/05/06 11:32:52;;;;;;;7.53;5.10;;;;;;;25.19;31.02;100093.63;5069992;28;20222;-56
2022/05/06 11:35:46;;;;;;;7.20;4.53;;;;;;;25.22;31.02;100097.03;5068791;28;20200;-57
2022/05/06 11:38:15;;;;;;;9.87;4.73;;;;;;;25.19;29.62;100089.22;5068979;28;20718;-57
2022/05/06 11:40:42;;;;;;;5.53;3.70;;;;;;;25.06;30.20;100093.19;5070065;28;20223;-57
2022/05/06 11:43:20;;;;;;;6.63;4.00;;;;;;;24.89;29.95;100081.50;5070132;28;20291;-57
2022/05/06 11:48:32;;;;;;;5.10;4.00;;;;;;;24.97;29.74;100087.38;5067257;28;20305;-57
2022/05/06 11:51:04;;;;;;;3.90;3.60;;;;;;;24.85;28.25;100088.63;5067008;28;20682;-57
2022/05/06 11:53:34;;;;;;;5.47;3.80;;;;;;;24.83;27.99;100085.19;5068007;28;20270;-58
2022/05/06 11:56:01;;;;;;;5.43;4.93;;;;;;;24.67;28.96;100076.03;5069979;28;20624;-56
2022/05/06 11:58:29;;;;;;;6.03;4.70;;;;;;;24.49;29.44;100079.25;5069755;28;20249;-56
2022/05/06 12:00:56;;;;;;;7.17;5.40;;;;;;;24.64;30.21;100076.13;5069629;28;20247;-56
2022/05/06 12:03:24;;;;;;;5.73;5.13;;;;;;;24.75;29.54;100073.19;5063894;28;20214;-56
2022/05/06 12:06:06;;;;;;;9.17;4.30;;;;;;;24.45;30.43;100067.09;5068579;28;20693;-56